Terminal Aerodrome Forecast
Issued by NWS

Home | Current Version | Previous Version | Text Only | Print | Product List | Glossary On
Versions: 1 2 3 4 5 6 7 8 9 10 11 12 13 14 15 16
000
FTUS41 KGYX 280534
TAFPSM
TAF
KPSM 280534Z 2806/2906 36006KT P6SM BKN035
     FM281300 01013G22KT 2SM -SNRA BR OVC007
     FM281500 01013G21KT 1SM -SNRA OVC004
     FM282200 36011KT 3SM BR OVC015
     FM290500 34007KT 5SM BR OVC035=

USA.gov is the U.S. government's official web portal to all federal, state and local government web resources and services.